Time;durP1;ratioP1;P1;durP2;ratioP2;P2;SDS_P1;SDS_P2;PMS_P1;PMS_P2;Temp;Humidity;BMP_temperature;BMP_pressure;BME280_temperature;BME280_humidity;BME280_pressure;Samples;Min_cycle;Max_cycle;Signal;HPM_P1;HPM_P2
2023/07/18 00:02:16;;;;;;;0.10;0.10;;;;;;;20.83;63.73;102140.97;5032095;28;20083;-71
2023/07/18 00:04:41;;;;;;;0.10;0.10;;;;;;;20.89;63.24;102150.84;5032779;28;20037;-72
2023/07/18 00:07:07;;;;;;;0.20;0.20;;;;;;;20.99;63.40;102147.38;5032680;28;20025;-72
2023/07/18 00:09:33;;;;;;;0.10;0.10;;;;;;;20.89;63.56;102153.56;5033443;28;20014;-72
2023/07/18 00:11:59;;;;;;;0.10;0.10;;;;;;;20.92;62.93;102153.06;5032617;28;20543;-71
2023/07/18 00:14:24;;;;;;;0.10;0.10;;;;;;;20.97;62.14;102141.38;5032496;28;20151;-71
2023/07/18 00:16:50;;;;;;;0.10;0.10;;;;;;;20.98;62.45;102137.53;5032482;28;20034;-71
2023/07/18 00:19:15;;;;;;;0.10;0.10;;;;;;;20.91;62.58;102143.22;5032739;28;20033;-72
2023/07/18 00:21:41;;;;;;;0.10;0.10;;;;;;;20.80;63.64;102140.66;5032863;28;20521;-73
2023/07/18 00:24:06;;;;;;;0.13;0.13;;;;;;;20.84;63.44;102145.34;5031496;28;20033;-71
2023/07/18 00:26:32;;;;;;;0.10;0.10;;;;;;;20.78;64.37;102138.19;5031215;28;20095;-73
2023/07/18 00:28:58;;;;;;;0.10;0.10;;;;;;;20.67;65.14;102141.94;5031781;28;20038;-72
2023/07/18 00:31:23;;;;;;;0.10;0.10;;;;;;;20.63;65.20;102135.34;5031078;28;20045;-72
2023/07/18 00:33:49;;;;;;;0.10;0.10;;;;;;;20.84;64.46;102122.66;5031902;28;20026;-72
2023/07/18 00:36:14;;;;;;;0.20;0.20;;;;;;;20.66;65.32;102123.06;5031512;28;20034;-72
2023/07/18 00:38:39;;;;;;;0.10;0.10;;;;;;;20.51;65.91;102125.69;5031466;28;20064;-72
2023/07/18 00:41:05;;;;;;;0.10;0.10;;;;;;;20.55;65.67;102130.38;5031194;28;20045;-72
2023/07/18 00:43:33;;;;;;;0.10;0.10;;;;;;;20.66;64.63;102134.00;5031129;28;20036;-72
2023/07/18 00:45:59;;;;;;;0.10;0.10;;;;;;;20.64;64.68;102133.41;5031700;28;20056;-72
2023/07/18 00:48:27;;;;;;;0.10;0.10;;;;;;;20.66;64.80;102134.81;5031564;28;20022;-72
2023/07/18 00:50:53;;;;;;;0.10;0.10;;;;;;;20.40;65.40;102123.94;5031292;28;20401;-72
2023/07/18 00:53:22;;;;;;;0.10;0.10;;;;;;;20.51;65.10;102122.94;5031122;28;20036;-73
2023/07/18 00:55:49;;;;;;;0.10;0.10;;;;;;;20.17;65.86;102125.03;5030864;28;20050;-72
2023/07/18 00:58:16;;;;;;;0.10;0.10;;;;;;;20.49;64.39;102130.56;5030662;28;20034;-72
2023/07/18 01:00:41;;;;;;;0.10;0.10;;;;;;;20.10;65.96;102122.53;5031508;28;20033;-73
2023/07/18 01:03:07;;;;;;;0.10;0.10;;;;;;;20.49;64.03;102125.94;5030835;28;20033;-73
2023/07/18 01:05:33;;;;;;;0.10;0.10;;;;;;;20.49;64.80;102128.66;5030894;28;20046;-72
2023/07/18 01:08:00;;;;;;;0.20;0.20;;;;;;;20.44;65.25;102125.88;5030899;28;20085;-72
2023/07/18 01:10:26;;;;;;;0.10;0.10;;;;;;;20.40;64.81;102124.75;5030492;28;20034;-73
2023/07/18 01:12:54;;;;;;;0.13;0.13;;;;;;;20.20;65.86;102121.00;5030776;28;20032;-71
2023/07/18 01:15:20;;;;;;;0.10;0.10;;;;;;;20.40;65.21;102116.56;5030992;28;20046;-71
2023/07/18 01:17:47;;;;;;;0.10;0.10;;;;;;;20.28;65.17;102123.28;5030545;28;20047;-72
2023/07/18 01:20:22;;;;;;;0.10;0.10;;;;;;;20.34;65.20;102122.25;5030684;28;20033;-72
2023/07/18 01:22:49;;;;;;;0.10;0.10;;;;;;;20.09;66.21;102122.78;5030177;28;20044;-72
2023/07/18 01:25:16;;;;;;;0.10;0.10;;;;;;;19.95;66.94;102121.56;5030360;28;20083;-72
2023/07/18 01:27:43;;;;;;;0.10;0.10;;;;;;;20.14;66.06;102125.56;5030785;28;20055;-71
2023/07/18 01:30:09;;;;;;;0.10;0.10;;;;;;;20.21;65.48;102122.66;5030189;28;20132;-72
2023/07/18 01:32:35;;;;;;;0.10;0.10;;;;;;;20.08;66.34;102127.44;5029832;28;20215;-72
2023/07/18 01:35:04;;;;;;;0.10;0.10;;;;;;;20.08;66.30;102124.69;5030299;28;20443;-72
2023/07/18 01:37:29;;;;;;;0.10;0.10;;;;;;;20.06;66.65;102134.22;5030360;28;20025;-73
2023/07/18 01:39:54;;;;;;;0.10;0.10;;;;;;;20.21;65.04;102125.38;5030023;28;20037;-72
2023/07/18 01:42:20;;;;;;;0.10;0.10;;;;;;;20.29;65.26;102120.28;5030450;28;20026;-72
2023/07/18 01:44:45;;;;;;;0.10;0.10;;;;;;;20.31;65.57;102120.03;5029885;28;20508;-72
2023/07/18 01:47:11;;;;;;;0.20;0.20;;;;;;;20.23;65.93;102115.03;5012035;28;20049;-73
2023/07/18 01:49:36;;;;;;;0.10;0.10;;;;;;;20.25;65.05;102119.16;5030381;28;20044;-73
2023/07/18 01:52:03;;;;;;;0.10;0.10;;;;;;;20.20;65.73;102119.13;5029980;28;20099;-71
2023/07/18 01:54:29;;;;;;;0.10;0.10;;;;;;;20.06;66.89;102112.38;5030280;28;20033;-72
2023/07/18 01:56:54;;;;;;;0.10;0.10;;;;;;;20.04;66.35;102109.91;5029595;28;20073;-72
2023/07/18 01:59:20;;;;;;;0.10;0.10;;;;;;;20.01;66.43;102106.84;5029865;28;20124;-72
2023/07/18 02:01:46;;;;;;;0.10;0.10;;;;;;;20.08;67.00;102104.75;5011613;28;20103;-74
2023/07/18 02:04:11;;;;;;;0.10;0.10;;;;;;;19.96;66.75;102115.81;5029676;28;20091;-72
2023/07/18 02:06:36;;;;;;;0.10;0.10;;;;;;;19.81;67.33;102107.47;5030144;28;20517;-72
2023/07/18 02:09:04;;;;;;;0.10;0.10;;;;;;;20.12;66.21;102109.47;5029912;28;20386;-72
2023/07/18 02:11:29;;;;;;;0.10;0.10;;;;;;;20.00;65.91;102106.06;5029126;28;20048;-72
2023/07/18 02:13:54;;;;;;;0.10;0.10;;;;;;;20.10;66.06;102103.44;5029843;28;20041;-72
2023/07/18 02:16:20;;;;;;;0.10;0.10;;;;;;;19.71;68.10;102110.09;5029796;28;20401;-72
2023/07/18 02:18:45;;;;;;;0.10;0.10;;;;;;;19.66;69.18;102104.56;5029812;28;20041;-71
2023/07/18 02:21:11;;;;;;;0.17;0.17;;;;;;;18.94;71.08;102111.19;5029569;28;20037;-71
2023/07/18 02:23:36;;;;;;;0.10;0.10;;;;;;;19.73;68.34;102107.94;5029017;28;20041;-72
2023/07/18 02:26:01;;;;;;;0.10;0.10;;;;;;;20.00;67.51;102106.06;5029127;28;20033;-72
2023/07/18 02:28:27;;;;;;;0.10;0.10;;;;;;;19.62;69.55;102103.41;5029122;28;20022;-72
2023/07/18 02:30:52;;;;;;;0.17;0.17;;;;;;;19.59;68.90;102114.84;5029534;28;20025;-71
2023/07/18 02:33:17;;;;;;;0.10;0.10;;;;;;;19.74;68.44;102111.47;5029091;28;20627;-71
2023/07/18 02:35:48;;;;;;;0.10;0.10;;;;;;;19.80;68.06;102111.28;5029530;28;20063;-71
2023/07/18 02:38:13;;;;;;;;;;;;;;;19.88;68.40;102105.38;5030141;28;20044;-72
2023/07/18 02:40:41;;;;;;;0.10;0.10;;;;;;;19.84;67.99;102106.97;5011576;28;19917;-71
2023/07/18 02:43:07;;;;;;;0.10;0.10;;;;;;;19.76;68.91;102103.84;5028891;28;20029;-72
2023/07/18 02:45:32;;;;;;;0.10;0.10;;;;;;;19.68;68.76;102102.41;5029433;28;20021;-72
2023/07/18 02:47:58;;;;;;;0.10;0.10;;;;;;;19.77;68.33;102100.84;5029095;28;20037;-71
2023/07/18 02:50:23;;;;;;;0.10;0.10;;;;;;;20.23;66.68;102096.75;5028942;28;20525;-71
2023/07/18 02:52:49;;;;;;;0.17;0.17;;;;;;;20.21;65.89;102098.06;5029097;28;20029;-73
2023/07/18 02:55:15;;;;;;;0.20;0.20;;;;;;;20.17;65.83;102097.75;5028936;28;20048;-72
2023/07/18 02:57:40;;;;;;;0.20;0.20;;;;;;;20.23;65.70;102106.84;5029151;28;20050;-73
2023/07/18 03:00:17;;;;;;;0.10;0.10;;;;;;;20.13;66.57;102102.06;5028906;28;20034;-72
2023/07/18 03:02:42;;;;;;;0.10;0.10;;;;;;;20.25;65.75;102101.94;5028810;28;20037;-71
2023/07/18 03:05:08;;;;;;;0.10;0.10;;;;;;;20.36;64.81;102103.69;5028811;28;20596;-72
2023/07/18 03:07:33;;;;;;;0.10;0.10;;;;;;;20.33;65.02;102106.94;5029166;28;20029;-72
2023/07/18 03:09:58;;;;;;;0.10;0.10;;;;;;;19.60;67.89;102107.47;5028867;28;20030;-71
2023/07/18 03:12:24;;;;;;;0.10;0.10;;;;;;;19.97;67.32;102111.16;5028930;28;20038;-71
2023/07/18 03:14:49;;;;;;;0.20;0.20;;;;;;;19.77;68.13;102105.50;5028584;28;20508;-72
2023/07/18 03:17:15;;;;;;;0.10;0.10;;;;;;;19.70;67.71;102107.59;5028843;28;20033;-71
2023/07/18 03:19:40;;;;;;;0.10;0.10;;;;;;;19.79;67.65;102114.28;5028783;28;20036;-72
2023/07/18 03:22:05;;;;;;;0.10;0.10;;;;;;;20.00;67.12;102110.69;5028601;28;20484;-72
2023/07/18 03:24:33;;;;;;;0.10;0.10;;;;;;;19.72;68.20;102114.44;5029075;28;20048;-73
2023/07/18 03:26:59;;;;;;;0.10;0.10;;;;;;;20.06;66.89;102107.75;5028239;28;20113;-72
2023/07/18 03:29:24;;;;;;;0.10;0.10;;;;;;;20.14;65.76;102109.19;5028247;28;20034;-73
2023/07/18 03:31:50;;;;;;;0.10;0.10;;;;;;;20.13;65.73;102113.00;5028619;28;20508;-72
2023/07/18 03:34:15;;;;;;;0.20;0.20;;;;;;;20.13;66.17;102102.06;5028445;28;20396;-72
2023/07/18 03:36:41;;;;;;;0.10;0.10;;;;;;;20.01;66.49;102098.66;5031554;28;20033;-72
2023/07/18 03:39:06;;;;;;;0.10;0.10;;;;;;;19.93;66.78;102110.06;5032524;28;20040;-72
2023/07/18 03:41:31;;;;;;;0.10;0.10;;;;;;;19.78;67.04;102110.72;5032226;28;20362;-72
2023/07/18 03:43:57;;;;;;;0.20;0.20;;;;;;;20.12;65.42;102112.19;5041426;28;20033;-72
2023/07/18 03:46:22;;;;;;;0.10;0.10;;;;;;;19.65;67.25;102100.19;5037492;28;20629;-72
2023/07/18 03:48:48;;;;;;;0.10;0.10;;;;;;;20.01;66.17;102101.41;5033174;28;20022;-71
2023/07/18 03:51:14;;;;;;;0.20;0.20;;;;;;;19.66;67.25;102109.19;5032627;28;20476;-73
2023/07/18 03:53:39;;;;;;;0.10;0.10;;;;;;;19.63;67.87;102102.34;5014034;28;20053;-72
2023/07/18 03:56:06;;;;;;;0.13;0.13;;;;;;;19.55;67.98;102102.81;5032146;28;20059;-72
2023/07/18 03:58:32;;;;;;;0.15;0.15;;;;;;;19.65;68.39;102096.63;5031896;28;20440;-72
2023/07/18 04:00:57;;;;;;;0.10;0.10;;;;;;;19.95;66.88;102097.00;5028130;28;20104;-71
2023/07/18 04:03:23;;;;;;;0.10;0.10;;;;;;;19.77;67.61;102097.34;5018765;28;20101;-72
2023/07/18 04:05:51;;;;;;;0.10;0.10;;;;;;;19.94;66.92;102087.16;5015150;28;20344;-72
2023/07/18 04:08:17;;;;;;;0.10;0.10;;;;;;;19.99;66.47;102088.00;5024930;28;20041;-71
2023/07/18 04:10:42;;;;;;;0.20;0.20;;;;;;;20.19;65.76;102090.16;5025426;28;20563;-72
2023/07/18 04:13:07;;;;;;;0.10;0.10;;;;;;;20.15;65.52;102086.25;5030939;28;20037;-72
2023/07/18 04:15:33;;;;;;;0.15;0.15;;;;;;;19.57;67.66;102095.19;5031584;28;20025;-73
2023/07/18 04:18:00;;;;;;;0.10;0.10;;;;;;;19.61;68.02;102088.16;5031166;28;20041;-71
2023/07/18 04:20:26;;;;;;;0.20;0.20;;;;;;;19.94;67.05;102090.72;5013904;28;20116;-71
2023/07/18 04:22:51;;;;;;;0.10;0.10;;;;;;;18.88;70.22;102093.09;5031795;28;20033;-72
2023/07/18 04:25:16;;;;;;;0.10;0.10;;;;;;;19.54;68.74;102084.78;5031696;28;20413;-72
2023/07/18 04:27:44;;;;;;;0.20;0.20;;;;;;;19.83;67.30;102078.00;5030649;28;20021;-71
2023/07/18 04:30:10;;;;;;;0.10;0.10;;;;;;;20.17;65.43;102089.56;5030404;28;20115;-73
2023/07/18 04:32:35;;;;;;;0.10;0.10;;;;;;;19.90;66.17;102077.81;5031546;28;20072;-71
2023/07/18 04:35:01;;;;;;;0.10;0.10;;;;;;;20.21;65.73;102085.25;5031553;28;20025;-72
2023/07/18 04:37:28;;;;;;;0.10;0.10;;;;;;;19.89;66.85;102079.72;5031409;28;20029;-72
2023/07/18 04:39:53;;;;;;;0.10;0.10;;;;;;;20.00;66.51;102086.94;5031810;28;20030;-71
2023/07/18 04:42:18;;;;;;;0.10;0.10;;;;;;;19.88;67.16;102077.25;5031500;28;20100;-71
2023/07/18 04:44:44;;;;;;;0.10;0.10;;;;;;;19.70;67.73;102083.03;5031114;28;20485;-72
2023/07/18 04:47:09;;;;;;;0.20;0.20;;;;;;;19.81;66.99;102088.34;5030886;28;20095;-72
2023/07/18 04:49:34;;;;;;;0.10;0.10;;;;;;;20.04;66.13;102082.63;5031576;28;20041;-72
2023/07/18 04:52:00;;;;;;;0.10;0.10;;;;;;;19.43;68.27;102087.63;5031445;28;20029;-70
2023/07/18 04:54:25;;;;;;;0.10;0.10;;;;;;;19.32;69.26;102088.56;5031734;28;20025;-73
2023/07/18 04:56:53;;;;;;;0.10;0.10;;;;;;;19.74;67.35;102093.19;5036734;28;20041;-71
2023/07/18 04:59:18;;;;;;;0.10;0.10;;;;;;;19.66;67.04;102082.75;5050907;28;20037;-72
2023/07/18 05:01:44;;;;;;;0.10;0.10;;;;;;;20.04;65.95;102084.53;5051045;28;20567;-72
2023/07/18 05:04:09;;;;;;;0.10;0.10;;;;;;;19.45;67.71;102085.47;5051339;28;20037;-72
2023/07/18 05:06:35;;;;;;;0.10;0.10;;;;;;;19.61;67.39;102085.41;5048249;28;20084;-73
2023/07/18 05:09:00;;;;;;;0.10;0.10;;;;;;;19.83;66.96;102083.47;5031017;28;20397;-72
2023/07/18 05:11:25;;;;;;;0.20;0.20;;;;;;;19.81;66.82;102093.00;5030921;28;20028;-72
2023/07/18 05:13:51;;;;;;;0.10;0.10;;;;;;;19.84;66.82;102085.13;5012574;28;20034;-72
2023/07/18 05:16:16;;;;;;;0.10;0.10;;;;;;;19.60;67.83;102091.09;5030835;28;20349;-72
2023/07/18 05:18:42;;;;;;;0.10;0.10;;;;;;;20.26;65.50;102096.25;5031771;28;20033;-72
2023/07/18 05:21:07;;;;;;;0.10;0.10;;;;;;;20.72;63.76;102095.53;5030991;28;20030;-72
2023/07/18 05:23:32;;;;;;;0.15;0.15;;;;;;;20.49;64.70;102097.78;5030928;28;20409;-72
2023/07/18 05:25:58;;;;;;;0.10;0.10;;;;;;;20.68;64.21;102088.94;5030482;28;20033;-63
2023/07/18 05:28:24;;;;;;;0.10;0.10;;;;;;;20.43;64.60;102098.84;5012186;28;20482;-61
2023/07/18 05:30:49;;;;;;;0.20;0.20;;;;;;;20.81;63.88;102096.69;5030833;28;20516;-63
2023/07/18 05:33:14;;;;;;;0.10;0.10;;;;;;;20.38;65.51;102096.91;5030295;28;20037;-63
2023/07/18 05:35:40;;;;;;;0.10;0.10;;;;;;;20.36;65.67;102096.34;5012222;28;20076;-61
2023/07/18 05:38:06;;;;;;;0.10;0.10;;;;;;;20.63;65.78;102090.81;5030490;28;20312;-62
2023/07/18 05:40:31;;;;;;;0.10;0.10;;;;;;;20.62;65.50;102090.00;5030377;28;20581;-63
2023/07/18 05:42:57;;;;;;;0.10;0.10;;;;;;;21.06;63.56;102089.78;5031737;28;20013;-62
2023/07/18 05:45:22;;;;;;;0.10;0.10;;;;;;;21.07;63.43;102094.16;5050319;28;20480;-61
2023/07/18 05:47:48;;;;;;;0.10;0.10;;;;;;;21.34;62.81;102089.38;5050071;28;20033;-63
2023/07/18 05:50:13;;;;;;;0.10;0.10;;;;;;;21.27;63.45;102091.53;5050123;28;20036;-63
2023/07/18 05:52:39;;;;;;;0.10;0.10;;;;;;;21.49;62.88;102093.00;5050129;28;20037;-64
2023/07/18 05:55:07;;;;;;;0.10;0.10;;;;;;;21.60;62.50;102094.69;5049941;28;20076;-63
2023/07/18 05:57:32;;;;;;;0.10;0.10;;;;;;;21.20;63.80;102093.69;5050070;28;20493;-63
2023/07/18 05:59:58;;;;;;;0.10;0.10;;;;;;;21.56;62.71;102092.78;5049100;28;20041;-61
2023/07/18 06:02:23;;;;;;;0.10;0.10;;;;;;;21.34;63.56;102100.31;5049790;28;20052;-63
2023/07/18 06:04:49;;;;;;;0.10;0.10;;;;;;;21.75;63.04;102097.50;5030208;28;20048;-63
2023/07/18 06:07:15;;;;;;;0.10;0.10;;;;;;;21.68;63.04;102096.91;5029807;28;20231;-62
2023/07/18 06:09:42;;;;;;;0.10;0.10;;;;;;;21.93;62.75;102092.63;5030195;28;20128;-66
2023/07/18 06:12:08;;;;;;;0.10;0.10;;;;;;;21.19;65.31;102100.25;5029470;28;20083;-63
2023/07/18 06:14:34;;;;;;;0.10;0.10;;;;;;;21.21;65.60;102095.34;5029707;28;20038;-62
2023/07/18 06:16:59;;;;;;;0.10;0.10;;;;;;;22.17;62.31;102088.31;5029854;28;20107;-63
2023/07/18 06:19:25;;;;;;;0.10;0.10;;;;;;;22.28;61.56;102087.22;5029935;28;20110;-62
2023/07/18 06:21:50;;;;;;;0.10;0.10;;;;;;;21.63;63.92;102094.16;5030251;28;20033;-63
2023/07/18 06:24:16;;;;;;;0.10;0.10;;;;;;;21.20;65.12;102099.16;5029817;28;20405;-62
2023/07/18 06:26:48;;;;;;;0.10;0.10;;;;;;;21.90;63.44;102090.44;5029755;28;20083;-62
2023/07/18 06:29:14;;;;;;;0.10;0.10;;;;;;;22.08;62.42;102087.19;5029579;28;20151;-61
2023/07/18 06:31:39;;;;;;;0.10;0.10;;;;;;;22.43;61.21;102088.03;5029457;28;20493;-64
2023/07/18 06:34:05;;;;;;;0.10;0.10;;;;;;;21.93;62.29;102100.84;5022131;28;20112;-63
2023/07/18 06:36:30;;;;;;;0.00;0.00;;;;;;;22.29;61.48;102089.69;5010426;28;20034;-63
2023/07/18 06:38:56;;;;;;;0.00;0.00;;;;;;;22.49;61.96;102103.38;5010129;28;20038;-62
2023/07/18 06:41:21;;;;;;;0.08;0.08;;;;;;;22.23;62.31;102096.25;5009727;28;20038;-61
2023/07/18 06:43:46;;;;;;;0.10;0.10;;;;;;;22.04;62.65;102102.50;5017647;28;20037;-63
2023/07/18 06:46:12;;;;;;;0.10;0.10;;;;;;;22.78;60.51;102094.66;5029656;28;20033;-63
2023/07/18 06:48:37;;;;;;;0.10;0.10;;;;;;;22.38;60.86;102090.78;5029859;28;20487;-63
2023/07/18 06:51:06;;;;;;;0.10;0.10;;;;;;;22.31;61.07;102097.66;5029172;28;20041;-63
2023/07/18 06:53:31;;;;;;;0.10;0.10;;;;;;;22.44;60.98;102088.88;5029382;28;20042;-63
2023/07/18 06:55:57;;;;;;;0.00;0.00;;;;;;;22.36;61.07;102095.72;5029214;28;20033;-63
2023/07/18 06:58:22;;;;;;;0.10;0.10;;;;;;;22.73;61.12;102086.41;5044780;28;20567;-62
2023/07/18 07:00:50;;;;;;;0.08;0.08;;;;;;;23.24;59.24;102091.53;5032162;28;20018;-62
2023/07/18 07:03:15;;;;;;;0.00;0.00;;;;;;;23.49;57.57;102080.47;5028813;28;20044;-65
2023/07/18 07:05:45;;;;;;;0.00;0.00;;;;;;;23.46;58.08;102089.28;5029158;28;20038;-63
2023/07/18 07:08:12;;;;;;;0.00;0.00;;;;;;;23.63;57.03;102083.44;5028977;28;20033;-63
2023/07/18 07:10:39;;;;;;;0.00;0.00;;;;;;;23.49;57.83;102080.47;5031233;28;20041;-64
2023/07/18 07:13:05;;;;;;;0.10;0.10;;;;;;;23.03;59.78;102076.25;5032686;28;20037;-63
2023/07/18 07:15:31;;;;;;;0.00;0.00;;;;;;;23.17;59.39;102080.03;5033214;28;20083;-63
2023/07/18 07:17:56;;;;;;;0.00;0.00;;;;;;;23.93;57.08;102077.78;5033247;28;20052;-62
2023/07/18 07:20:24;;;;;;;0.00;0.00;;;;;;;24.50;55.63;102079.03;5033032;28;20029;-63
2023/07/18 07:22:53;;;;;;;0.00;0.00;;;;;;;23.28;59.78;102078.91;5033008;28;20037;-62
2023/07/18 07:25:19;;;;;;;0.00;0.00;;;;;;;23.69;57.25;102079.56;5032832;28;20410;-63
2023/07/18 07:27:44;;;;;;;0.10;0.10;;;;;;;24.04;56.96;102070.31;5033118;28;20416;-62
2023/07/18 07:30:15;;;;;;;0.00;0.00;;;;;;;24.67;55.51;102069.25;5032867;28;20030;-61
2023/07/18 07:32:40;;;;;;;;;;;;;;;25.02;54.45;102071.69;5033022;28;20153;-63
2023/07/18 07:35:06;;;;;;;0.00;0.00;;;;;;;24.99;54.35;102066.78;5032635;28;20405;-61
2023/07/18 07:37:32;;;;;;;0.00;0.00;;;;;;;24.37;56.00;102070.34;5032584;28;20492;-62
2023/07/18 07:39:57;;;;;;;0.00;0.00;;;;;;;24.18;56.22;102072.16;5014926;28;20026;-64
2023/07/18 07:42:22;;;;;;;0.00;0.00;;;;;;;24.68;55.21;102076.41;5014510;28;20044;-63
2023/07/18 07:44:48;;;;;;;0.00;0.00;;;;;;;24.85;54.04;102068.56;5031916;28;20042;-62
2023/07/18 07:47:13;;;;;;;0.00;0.00;;;;;;;24.74;55.02;102064.28;5032507;28;20098;-63
2023/07/18 07:49:39;;;;;;;0.00;0.00;;;;;;;25.05;53.73;102068.34;5032433;28;20045;-63
2023/07/18 07:52:04;;;;;;;0.00;0.00;;;;;;;25.28;53.02;102069.47;5030854;28;20474;-63
2023/07/18 07:54:30;;;;;;;0.00;0.00;;;;;;;24.94;53.10;102061.31;5032606;28;20064;-61
2023/07/18 07:56:56;;;;;;;0.00;0.00;;;;;;;25.17;52.76;102059.69;5031757;28;20053;-62
2023/07/18 07:59:22;;;;;;;0.00;0.00;;;;;;;25.08;53.54;102054.00;5032082;28;20403;-62
2023/07/18 08:01:47;;;;;;;0.00;0.00;;;;;;;25.38;50.99;102050.06;5031869;28;20040;-62
2023/07/18 08:04:13;;;;;;;0.00;0.00;;;;;;;25.36;51.21;102054.22;5032077;28;20034;-62
2023/07/18 08:06:39;;;;;;;0.00;0.00;;;;;;;25.59;50.65;102051.47;5032662;28;20021;-62
2023/07/18 08:09:04;;;;;;;0.00;0.00;;;;;;;25.40;50.25;102052.56;5032053;28;20029;-63
2023/07/18 08:11:30;;;;;;;0.00;0.00;;;;;;;25.41;51.62;102049.53;5031711;28;20437;-62
2023/07/18 08:13:56;;;;;;;0.00;0.00;;;;;;;25.32;51.07;102053.19;5031737;28;20040;-62
2023/07/18 08:16:21;;;;;;;0.00;0.00;;;;;;;25.32;50.11;102045.75;5031862;28;20489;-64
2023/07/18 08:18:47;;;;;;;0.00;0.00;;;;;;;25.65;50.13;102047.53;5032197;28;20547;-61
2023/07/18 08:21:13;;;;;;;0.00;0.00;;;;;;;25.90;49.97;102049.13;5012632;28;20567;-63
2023/07/18 08:23:38;;;;;;;0.00;0.00;;;;;;;25.58;50.53;102046.25;5031475;28;20481;-62
2023/07/18 08:26:04;;;;;;;0.00;0.00;;;;;;;25.67;51.16;102050.00;5031523;28;20037;-62
2023/07/18 08:28:29;;;;;;;0.00;0.00;;;;;;;25.57;48.73;102047.38;5031590;28;20030;-62
2023/07/18 08:30:55;;;;;;;0.00;0.00;;;;;;;25.24;47.21;102036.22;5031245;28;20432;-62
2023/07/18 08:33:21;;;;;;;0.00;0.00;;;;;;;25.28;46.35;102034.50;5031642;28;20036;-63
2023/07/18 08:35:49;;;;;;;0.00;0.00;;;;;;;26.11;45.17;102025.66;5013349;28;20095;-63
2023/07/18 08:38:14;;;;;;;0.00;0.00;;;;;;;26.22;45.75;102023.56;5031585;28;20097;-63
2023/07/18 08:40:45;;;;;;;0.00;0.00;;;;;;;25.47;46.86;102022.75;5031250;28;20064;-63
2023/07/18 08:43:14;;;;;;;0.00;0.00;;;;;;;26.49;44.84;102016.19;5034690;28;20021;-62
2023/07/18 08:45:40;;;;;;;0.00;0.00;;;;;;;25.86;44.57;102018.59;5033806;28;20108;-63
2023/07/18 08:48:05;;;;;;;0.00;0.00;;;;;;;25.73;46.40;102027.59;5051540;28;20629;-63
2023/07/18 08:50:33;;;;;;;0.00;0.00;;;;;;;26.61;42.88;102013.75;5051118;28;20117;-62
2023/07/18 08:52:59;;;;;;;0.00;0.00;;;;;;;27.49;40.70;102021.69;5036240;28;20037;-64
2023/07/18 08:55:27;;;;;;;0.00;0.00;;;;;;;27.59;40.59;102020.63;5031059;28;20040;-63
2023/07/18 08:57:52;;;;;;;0.00;0.00;;;;;;;26.72;40.26;102023.50;5031452;28;20041;-63
2023/07/18 09:00:20;;;;;;;0.00;0.00;;;;;;;27.17;41.66;102020.97;5030940;28;20413;-63
2023/07/18 09:02:48;;;;;;;0.00;0.00;;;;;;;27.64;40.27;102006.69;5030874;28;20029;-61
2023/07/18 09:05:29;;;;;;;0.00;0.00;;;;;;;27.27;40.30;102012.47;5030985;28;20025;-63
2023/07/18 09:07:56;;;;;;;0.00;0.00;;;;;;;27.06;39.27;102008.50;5030631;28;20055;-63
2023/07/18 09:10:21;;;;;;;0.00;0.00;;;;;;;27.66;36.98;102010.78;5031050;28;20110;-62
2023/07/18 09:12:46;;;;;;;0.00;0.00;;;;;;;27.51;38.52;102010.31;5031037;28;20049;-64
2023/07/18 09:15:19;;;;;;;0.00;0.00;;;;;;;27.36;40.14;102005.13;5030776;28;20045;-62
2023/07/18 09:17:53;;;;;;;0.00;0.00;;;;;;;27.56;39.15;102004.66;5030610;28;20131;-63
2023/07/18 09:20:18;;;;;;;0.00;0.00;;;;;;;27.29;38.79;102001.94;5030492;28;20048;-63
2023/07/18 09:22:44;;;;;;;0.00;0.00;;;;;;;26.66;38.31;102002.63;5030626;28;20553;-63
2023/07/18 09:25:13;;;;;;;0.00;0.00;;;;;;;26.30;40.23;102000.84;5030800;28;20028;-63
2023/07/18 09:27:39;;;;;;;0.00;0.00;;;;;;;26.27;39.35;101996.72;5030996;28;20022;-63
2023/07/18 09:30:05;;;;;;;0.00;0.00;;;;;;;26.49;38.88;101990.56;5029941;28;20033;-63
2023/07/18 09:32:31;;;;;;;0.00;0.00;;;;;;;26.84;38.17;101990.72;5030150;28;20067;-62
2023/07/18 09:35:00;;;;;;;0.00;0.00;;;;;;;26.29;39.63;101991.72;5030373;28;20120;-62
2023/07/18 09:37:26;;;;;;;0.00;0.00;;;;;;;26.77;38.52;101987.53;5030293;28;20029;-63
2023/07/18 09:39:52;;;;;;;0.00;0.00;;;;;;;26.77;37.32;101990.31;5030690;28;20120;-63
2023/07/18 09:42:18;;;;;;;0.00;0.00;;;;;;;27.39;36.71;101987.94;5030071;28;20037;-62
2023/07/18 09:44:49;;;;;;;0.00;0.00;;;;;;;27.72;37.14;101981.91;5029726;28;20052;-63
2023/07/18 09:47:15;;;;;;;0.00;0.00;;;;;;;27.43;35.65;101972.38;5030141;28;20103;-61
2023/07/18 09:49:44;;;;;;;0.00;0.00;;;;;;;27.41;36.97;101975.47;5029739;28;20520;-64
2023/07/18 09:52:10;;;;;;;0.00;0.00;;;;;;;27.19;36.92;101975.38;5029796;28;20468;-62
2023/07/18 09:54:36;;;;;;;0.00;0.00;;;;;;;27.49;36.11;101973.91;5030214;28;20095;-63
2023/07/18 09:57:10;;;;;;;0.00;0.00;;;;;;;27.30;34.93;101973.22;5011627;28;20041;-62
2023/07/18 09:59:38;;;;;;;0.00;0.00;;;;;;;27.15;34.84;101974.34;5029590;28;20531;-63
2023/07/18 10:02:06;;;;;;;0.00;0.00;;;;;;;27.18;35.29;101973.75;5029910;28;20116;-62
2023/07/18 10:04:32;;;;;;;0.00;0.00;;;;;;;27.46;34.89;101977.31;5029983;28;20047;-61
2023/07/18 10:06:58;;;;;;;0.00;0.00;;;;;;;27.89;34.54;101977.66;5030087;28;20033;-62
2023/07/18 10:09:27;;;;;;;0.00;0.00;;;;;;;27.47;37.07;101970.66;5030353;28;20064;-63
2023/07/18 10:11:58;;;;;;;0.00;0.00;;;;;;;27.69;35.62;101979.75;5029644;28;20551;-63
2023/07/18 10:14:27;;;;;;;0.00;0.00;;;;;;;26.85;35.31;101970.28;5029559;28;20085;-61
2023/07/18 10:16:54;;;;;;;0.00;0.00;;;;;;;27.10;33.28;101965.38;5029682;28;20116;-62
2023/07/18 10:19:22;;;;;;;0.00;0.00;;;;;;;28.17;33.24;101960.66;5029631;28;20120;-62
2023/07/18 10:21:51;;;;;;;0.00;0.00;;;;;;;27.15;34.39;101965.25;5030043;28;20028;-61
2023/07/18 10:24:24;;;;;;;0.00;0.00;;;;;;;28.01;34.25;101961.38;5029619;28;20088;-62
2023/07/18 10:26:54;;;;;;;0.00;0.00;;;;;;;27.69;33.00;101954.91;5029125;28;20034;-62
2023/07/18 10:29:19;;;;;;;0.00;0.00;;;;;;;27.55;35.02;101961.63;5029526;28;20091;-63
2023/07/18 10:31:45;;;;;;;0.00;0.00;;;;;;;27.50;35.83;101959.78;5029458;28;20401;-63
2023/07/18 10:34:14;;;;;;;0.00;0.00;;;;;;;26.92;36.40;101958.84;5029252;28;20084;-63
2023/07/18 10:36:40;;;;;;;0.00;0.00;;;;;;;27.34;33.89;101952.19;5029812;28;20029;-61
2023/07/18 10:39:13;;;;;;;0.00;0.00;;;;;;;27.20;35.13;101951.34;5029344;28;20583;-62
2023/07/18 10:41:45;;;;;;;0.00;0.00;;;;;;;27.70;34.17;101941.91;5029418;28;20076;-62
2023/07/18 10:44:13;;;;;;;0.00;0.00;;;;;;;27.13;35.73;101935.19;5028350;28;20032;-62
2023/07/18 10:46:40;;;;;;;0.00;0.00;;;;;;;28.40;34.63;101942.88;5029324;28;20128;-62
2023/07/18 10:49:06;;;;;;;0.00;0.00;;;;;;;27.52;34.39;101935.44;5029239;28;20485;-61
2023/07/18 10:51:34;;;;;;;0.00;0.00;;;;;;;27.95;33.81;101924.72;5029825;28;20025;-63
2023/07/18 10:54:00;;;;;;;0.00;0.00;;;;;;;27.66;35.31;101930.69;5028981;28;20038;-63
2023/07/18 10:56:26;;;;;;;0.00;0.00;;;;;;;28.05;35.25;101930.00;5028937;28;20038;-64
2023/07/18 10:58:55;;;;;;;0.00;0.00;;;;;;;27.98;34.39;101924.13;5028846;28;20095;-62
2023/07/18 11:01:26;;;;;;;0.00;0.00;;;;;;;27.26;35.79;101919.75;5029123;28;20029;-63
2023/07/18 11:03:52;;;;;;;0.00;0.00;;;;;;;27.15;37.52;101918.31;5029733;28;20061;-63
2023/07/18 11:06:18;;;;;;;0.00;0.00;;;;;;;27.05;37.69;101916.59;5029633;28;20551;-62
2023/07/18 11:08:47;;;;;;;0.00;0.00;;;;;;;27.17;38.74;101916.06;5028899;28;20033;-65
2023/07/18 11:11:14;;;;;;;0.00;0.00;;;;;;;28.05;36.88;101924.47;5029156;28;20033;-62
2023/07/18 11:13:42;;;;;;;0.00;0.00;;;;;;;28.12;36.94;101921.25;5028830;28;20037;-63
2023/07/18 11:16:14;;;;;;;0.00;0.00;;;;;;;27.68;37.94;101906.31;5029020;28;20037;-61
2023/07/18 11:18:42;;;;;;;0.00;0.00;;;;;;;27.66;37.55;101908.59;5029367;28;20025;-62
2023/07/18 11:21:09;;;;;;;0.00;0.00;;;;;;;27.85;35.83;101904.81;5028889;28;20087;-62
2023/07/18 11:23:37;;;;;;;0.00;0.00;;;;;;;27.84;35.71;101901.22;5010981;28;20064;-63